Darstellungsparameter: Aktuell verwendete Einstellungen:
Skalierung der Graphiken ... ?
xyx+y,   Skalierungsfaktor:      Skalierung: Modus: x, Faktor: 1
Darstellungszeitraum ... ?
Vom - - bis: - -   Zeitraum: 23.04.2009 - 29.04.2009
Min/Max/Avg-Anzeige ... ?
Zeige MMA aktuell
Zeige MMA Monat
Zeige MMA alles
Zeige --A aktuell
Zeige --A Monat
Zeige --A alles
Keine MMA-Anzeige
MMA:
Average (ber die Originaldaten)
MMA-Basis: 23.04.2009 - 29.04.2009
Quicknavigation für Darstellung... ?
Tage:      1T, 2T, 3T, 5T -1T -2T -3T -5T +1T +2T +3T +5T
Wochen: 1W, 2W, 3W -1W -2W -3W +1W +2W +3W
Monate: 1M, 3M, 6M -1M -3M -6M +1M +3M +6M
Jahre:    1J, 3J, 5J, 10J -1J -3J -5J -10J +1J +3J +5J +10J
Nutze für die Darstellung ... ?
Originaldaten oder Mittelwerte auf ...
Stundenbasis Tagesbasis Wochenbasis
Monatsbasis Jahresbasis      Datenbasis: Original-Daten
Darstellen als:
Statistik (Auto) Statistik J:M      Darstellung:
Zur Graphik,    zurück zur Übersicht aller Sensoren.
 
Tabellarische Datenbersicht: ?
 
Sensor: Nr:Datum:Temp:Abs-Feuchte:Windchill:Wind:
Aussen-T/F 1 23-04-2009 00:07:39 9.7 C 4.24 g/m*3 9.7 C 0 km/h
2 23-04-2009 00:19:39 9.5 C 4.28 g/m*3 9.5 C 0 km/h
3 23-04-2009 00:31:39 9.2 C 4.46 g/m*3 9.2 C 0 km/h
4 23-04-2009 00:43:39 8.9 C 4.47 g/m*3 8.9 C 0 km/h
5 23-04-2009 00:55:39 8.6 C 4.73 g/m*3 8.6 C 0 km/h
6 23-04-2009 01:07:39 8.5 C 4.7 g/m*3 8.5 C 0 km/h
7 23-04-2009 01:19:39 8.4 C 4.67 g/m*3 8.4 C 0 km/h
8 23-04-2009 01:31:39 8.1 C 4.66 g/m*3 8.1 C 0 km/h
9 23-04-2009 01:43:39 8.1 C 4.66 g/m*3 8.1 C 0 km/h
10 23-04-2009 01:55:39 7.8 C 4.82 g/m*3 7.8 C 0 km/h
11 23-04-2009 02:07:39 7.7 C 4.7 g/m*3 7.7 C 0 km/h
12 23-04-2009 02:19:40 7.4 C 4.85 g/m*3 7.4 C 0 km/h
13 23-04-2009 02:31:40 7.6 C 4.83 g/m*3 7.6 C 0 km/h
14 23-04-2009 02:43:40 7.7 C 4.87 g/m*3 7.7 C 0 km/h
15 23-04-2009 02:55:40 7.3 C 4.98 g/m*3 7.3 C 0 km/h
16 23-04-2009 03:07:40 7.1 C 4.91 g/m*3 7.1 C 0 km/h
17 23-04-2009 03:19:40 7.1 C 4.91 g/m*3 7.1 C 0 km/h
18 23-04-2009 03:31:40 7.1 C 4.91 g/m*3 7.1 C 0 km/h
19 23-04-2009 03:43:40 7 C 4.96 g/m*3 7 C 0 km/h
20 23-04-2009 03:55:40 6.9 C 5.08 g/m*3 6.9 C 0 km/h
21 23-04-2009 04:07:40 6.6 C 5.06 g/m*3 6.6 C 0 km/h
22 23-04-2009 04:19:40 6.2 C 5.15 g/m*3 6.2 C 0 km/h
23 23-04-2009 04:31:40 6.3 C 5.33 g/m*3 6.3 C 0 km/h
24 23-04-2009 04:43:40 6.3 C 5.4 g/m*3 6.3 C 0 km/h
25 23-04-2009 04:55:40 6.5 C 5.47 g/m*3 6.5 C 0 km/h
Sensor: Nr:Datum:Temp:Abs-Feuchte:Windchill:Wind:
Aussen-T/F 26 23-04-2009 05:07:40 6.7 C 5.47 g/m*3 6.7 C 0 km/h
27 23-04-2009 05:19:40 6.5 C 5.47 g/m*3 6.5 C 0 km/h
28 23-04-2009 05:31:40 6.5 C 5.55 g/m*3 6.5 C 0 km/h
29 23-04-2009 05:43:40 6.8 C 5.66 g/m*3 6.8 C 0 km/h
30 23-04-2009 05:55:40 6.8 C 5.58 g/m*3 6.8 C 0 km/h
31 23-04-2009 06:07:41 6.8 C 5.66 g/m*3 6.8 C 0 km/h
32 23-04-2009 06:19:41 7 C 5.66 g/m*3 7 C 0 km/h
33 23-04-2009 06:31:41 7 C 5.66 g/m*3 7 C 0 km/h
34 23-04-2009 06:43:41 6.9 C 5.62 g/m*3 6.9 C 0 km/h
35 23-04-2009 06:55:41 7 C 5.66 g/m*3 7 C 0 km/h
36 23-04-2009 07:07:39 7.1 C 5.69 g/m*3 7.1 C 0 km/h
37 23-04-2009 07:19:39 7 C 5.66 g/m*3 7 C 0 km/h
38 23-04-2009 07:31:38 7.1 C 5.77 g/m*3 7.1 C 0 km/h
39 23-04-2009 07:43:38 7.1 C 5.69 g/m*3 7.1 C 0 km/h
40 23-04-2009 07:55:39 7.4 C 5.81 g/m*3 7.4 C 0 km/h
41 23-04-2009 08:07:38 7.7 C 5.84 g/m*3 7.7 C 0 km/h
42 23-04-2009 08:19:38 7.9 C 5.83 g/m*3 7.9 C 0 km/h
43 23-04-2009 08:31:38 8.4 C 5.94 g/m*3 8.4 C 0 km/h
44 23-04-2009 08:43:38 8.5 C 5.89 g/m*3 8.5 C 0 km/h
45 23-04-2009 08:55:38 8.6 C 5.93 g/m*3 8.6 C 0 km/h
46 23-04-2009 09:07:38 9 C 5.82 g/m*3 9 C 0 km/h
47 23-04-2009 09:19:37 9.5 C 5.92 g/m*3 9.5 C 0 km/h
48 23-04-2009 09:31:37 9.8 C 5.85 g/m*3 9.8 C 0 km/h
49 23-04-2009 09:43:37 10.3 C 5.75 g/m*3 10.3 C 0 km/h
50 23-04-2009 09:55:37 11 C 5.81 g/m*3 11 C 0 km/h
Sensor: Nr:Datum:Temp:Abs-Feuchte:Windchill:Wind:
Aussen-T/F 51 23-04-2009 10:07:37 11.5 C 5.58 g/m*3 11.5 C 0 km/h
52 23-04-2009 10:19:37 11.7 C 5.33 g/m*3 11.7 C 0 km/h
53 23-04-2009 10:31:37 11.1 C 5.24 g/m*3 11.1 C 0 km/h
54 23-04-2009 10:43:37 10.8 C 5.24 g/m*3 10.8 C 0 km/h
55 23-04-2009 10:55:36 10.9 C 5.07 g/m*3 10.9 C 0 km/h
56 23-04-2009 11:07:36 11.2 C 5.07 g/m*3 11.2 C 0 km/h
57 23-04-2009 11:19:37 11.9 C 5.3 g/m*3 11.9 C 0 km/h
58 23-04-2009 11:31:36 12 C 4.9 g/m*3 12 C 0 km/h
59 23-04-2009 11:43:36 11.6 C 4.57 g/m*3 11.6 C 0 km/h
60 23-04-2009 11:55:36 12.7 C 4.79 g/m*3 12.7 C 0 km/h
61 23-04-2009 12:07:36 13.9 C 4.2 g/m*3 13.9 C 0 km/h
62 23-04-2009 12:19:36 13.3 C 4.39 g/m*3 13.3 C 0 km/h
63 23-04-2009 12:31:36 13.1 C 4.11 g/m*3 13.1 C 0 km/h
64 23-04-2009 12:43:36 14 C 4.34 g/m*3 14 C 0 km/h
65 23-04-2009 12:55:35 14 C 4.22 g/m*3 14 C 0 km/h
66 23-04-2009 13:07:36 14.1 C 4.37 g/m*3 14.1 C 0 km/h
67 23-04-2009 13:19:35 16 C 4.09 g/m*3 16 C 0 km/h
68 23-04-2009 13:31:35 15.2 C 4.15 g/m*3 15.2 C 0 km/h
69 23-04-2009 13:43:35 16.2 C 4.27 g/m*3 16.2 C 0 km/h
70 23-04-2009 13:55:35 16.9 C 4.46 g/m*3 16.9 C 0 km/h
71 23-04-2009 14:07:35 15 C 4.23 g/m*3 15 C 0 km/h
72 23-04-2009 14:19:34 15 C 4.49 g/m*3 15 C 0 km/h
73 23-04-2009 14:31:35 15 C 4.23 g/m*3 15 C 0 km/h
74 23-04-2009 14:43:36 15.2 C 4.54 g/m*3 15.2 C 0 km/h
75 23-04-2009 14:55:34 16.7 C 4.69 g/m*3 16.7 C 0 km/h
Sensor: Nr:Datum:Temp:Abs-Feuchte:Windchill:Wind:
Aussen-T/F 76 23-04-2009 15:07:34 17.9 C 4.43 g/m*3 17.9 C 0 km/h
77 23-04-2009 15:19:34 18.5 C 3.64 g/m*3 18.5 C 0 km/h
78 23-04-2009 15:31:34 17.5 C 3.88 g/m*3 17.5 C 0 km/h
79 23-04-2009 15:43:34 18 C 3.84 g/m*3 18 C 0 km/h
80 23-04-2009 15:55:33 18.1 C 3.55 g/m*3 18.1 C 0 km/h
81 23-04-2009 16:07:33 16.6 C 3.81 g/m*3 16.6 C 0 km/h
82 23-04-2009 16:19:34 17.7 C 3.92 g/m*3 17.7 C 0 km/h
83 23-04-2009 16:31:33 18.1 C 3.71 g/m*3 18.1 C 0 km/h
84 23-04-2009 16:43:33 19.5 C 3.86 g/m*3 19.5 C 0 km/h
85 23-04-2009 16:55:33 18.1 C 3.4 g/m*3 18.1 C 0 km/h
86 23-04-2009 17:07:33 20.1 C 3.65 g/m*3 20.1 C 0 km/h
87 23-04-2009 17:19:33 20.4 C 3.71 g/m*3 20.4 C 0 km/h
88 23-04-2009 17:31:32 19.7 C 3.57 g/m*3 19.7 C 0 km/h
89 23-04-2009 17:43:32 18.6 C 3.82 g/m*3 18.6 C 0 km/h
90 23-04-2009 17:55:33 18.1 C 4.02 g/m*3 18.1 C 0 km/h
91 23-04-2009 18:07:32 17.7 C 4.07 g/m*3 17.7 C 0 km/h
92 23-04-2009 18:19:32 17.7 C 4.07 g/m*3 17.7 C 0 km/h
93 23-04-2009 18:31:32 17.4 C 4.15 g/m*3 17.4 C 0 km/h
94 23-04-2009 18:43:32 17.1 C 4.08 g/m*3 17.1 C 0 km/h
95 23-04-2009 18:55:32 16.9 C 4.31 g/m*3 16.9 C 0 km/h
96 23-04-2009 19:07:32 17.9 C 4.12 g/m*3 17.9 C 0 km/h
97 23-04-2009 19:19:31 18.1 C 4.17 g/m*3 18.1 C 0 km/h
98 23-04-2009 19:31:32 16.6 C 4.1 g/m*3 16.6 C 0 km/h
99 23-04-2009 19:43:33 15.4 C 4.2 g/m*3 15.4 C 0 km/h
100 23-04-2009 19:55:31 14.3 C 4.55 g/m*3 14.3 C 0 km/h
Sensor: Nr:Datum:Temp:Abs-Feuchte:Windchill:Wind:
Aussen-T/F 101 23-04-2009 20:07:31 14 C 4.58 g/m*3 14 C 0 km/h
102 23-04-2009 20:19:31 13.5 C 4.68 g/m*3 13.5 C 0 km/h
103 23-04-2009 20:31:31 13.4 C 4.65 g/m*3 13.4 C 0 km/h
104 23-04-2009 20:43:31 13.2 C 4.59 g/m*3 13.2 C 0 km/h
105 23-04-2009 20:55:30 12.6 C 4.76 g/m*3 12.6 C 0 km/h
106 23-04-2009 21:07:31 12.2 C 4.75 g/m*3 12.2 C 0 km/h
107 23-04-2009 21:19:30 12.1 C 4.93 g/m*3 12.1 C 0 km/h
108 23-04-2009 21:31:31 11.8 C 5.16 g/m*3 11.8 C 0 km/h
109 23-04-2009 21:43:32 11.7 C 5.23 g/m*3 11.7 C 0 km/h
110 23-04-2009 21:55:30 11.2 C 5.17 g/m*3 11.2 C 0 km/h
111 23-04-2009 22:07:30 11.2 C 5.27 g/m*3 11.2 C 0 km/h
112 23-04-2009 22:19:30 11 C 5.2 g/m*3 11 C 0 km/h
113 23-04-2009 22:32:31 10.5 C 5.24 g/m*3 10.5 C 0 km/h
114 23-04-2009 22:44:31 10.4 C 5.4 g/m*3 10.4 C 0 km/h
115 23-04-2009 22:56:31 10.1 C 5.39 g/m*3 10.1 C 0 km/h
116 23-04-2009 23:08:32 9.9 C 5.51 g/m*3 9.9 C 0 km/h
117 23-04-2009 23:20:32 9.6 C 5.5 g/m*3 9.6 C 0 km/h
118 23-04-2009 23:32:32 9.5 C 5.55 g/m*3 9.5 C 0 km/h
119 23-04-2009 23:44:32 9.3 C 5.57 g/m*3 9.3 C 0 km/h
120 23-04-2009 23:56:32 9.2 C 5.63 g/m*3 9.2 C 0 km/h
121 24-04-2009 00:08:32 9 C 5.64 g/m*3 9 C 0 km/h
122 24-04-2009 00:20:32 8.7 C 5.62 g/m*3 8.7 C 0 km/h
123 24-04-2009 00:32:32 8.6 C 5.67 g/m*3 8.6 C 0 km/h
124 24-04-2009 00:44:32 8.5 C 5.72 g/m*3 8.5 C 0 km/h
125 24-04-2009 00:56:32 8.3 C 5.82 g/m*3 8.3 C 0 km/h
Sensor: Nr:Datum:Temp:Abs-Feuchte:Windchill:Wind:
Aussen-T/F 126 24-04-2009 01:08:32 8.1 C 5.74 g/m*3 8.1 C 0 km/h
127 24-04-2009 01:20:32 7.9 C 5.75 g/m*3 7.9 C 0 km/h
128 24-04-2009 01:32:32 8.1 C 5.82 g/m*3 8.1 C 0 km/h
129 24-04-2009 01:44:32 8.3 C 5.98 g/m*3 8.3 C 0 km/h
130 24-04-2009 01:56:32 8.2 C 6.03 g/m*3 8.2 C 0 km/h
131 24-04-2009 02:08:32 8.1 C 5.91 g/m*3 8.1 C 0 km/h
132 24-04-2009 02:20:32 8.1 C 5.99 g/m*3 8.1 C 0 km/h
133 24-04-2009 02:32:32 8.2 C 5.95 g/m*3 8.2 C 0 km/h
134 24-04-2009 02:44:32 7.9 C 5.91 g/m*3 7.9 C 0 km/h
135 24-04-2009 02:56:33 7.9 C 6 g/m*3 7.9 C 0 km/h
136 24-04-2009 03:08:33 8 C 5.95 g/m*3 8 C 0 km/h
137 24-04-2009 03:20:33 7.7 C 5.92 g/m*3 7.7 C 0 km/h
138 24-04-2009 03:32:33 7.3 C 5.85 g/m*3 7.3 C 0 km/h
139 24-04-2009 03:44:33 7 C 5.97 g/m*3 7 C 0 km/h
140 24-04-2009 03:56:33 6.6 C 5.96 g/m*3 6.6 C 0 km/h
141 24-04-2009 04:08:33 6.5 C 5.92 g/m*3 6.5 C 0 km/h
142 24-04-2009 04:20:33 6.4 C 5.96 g/m*3 6.4 C 0 km/h
143 24-04-2009 04:32:33 6.7 C 6.23 g/m*3 6.7 C 0 km/h
144 24-04-2009 04:44:33 6.9 C 6.24 g/m*3 6.9 C 0 km/h
145 24-04-2009 04:56:33 7 C 6.2 g/m*3 7 C 0 km/h
146 24-04-2009 05:08:33 6.9 C 6.24 g/m*3 6.9 C 0 km/h
147 24-04-2009 05:20:33 7 C 6.12 g/m*3 7 C 0 km/h
148 24-04-2009 05:32:33 7 C 6.12 g/m*3 7 C 0 km/h
149 24-04-2009 05:44:33 7.2 C 6.12 g/m*3 7.2 C 0 km/h
150 24-04-2009 05:56:33 7.1 C 6.01 g/m*3 7.1 C 0 km/h
Sensor: Nr:Datum:Temp:Abs-Feuchte:Windchill:Wind:
Aussen-T/F 151 24-04-2009 06:08:33 7 C 5.97 g/m*3 7 C 0 km/h
152 24-04-2009 06:20:33 7 C 5.97 g/m*3 7 C 0 km/h
153 24-04-2009 06:32:31 6.8 C 6.04 g/m*3 6.8 C 0 km/h
154 24-04-2009 06:44:31 6.9 C 6.08 g/m*3 6.9 C 0 km/h
155 24-04-2009 06:56:31 6.9 C 6 g/m*3 6.9 C 0 km/h
156 24-04-2009 07:08:31 6.9 C 6 g/m*3 6.9 C 0 km/h
157 24-04-2009 07:20:30 6.9 C 6 g/m*3 6.9 C 0 km/h
158 24-04-2009 07:32:31 7 C 6.04 g/m*3 7 C 0 km/h
159 24-04-2009 07:44:30 7.1 C 6.08 g/m*3 7.1 C 0 km/h
160 24-04-2009 07:56:30 7.3 C 6.16 g/m*3 7.3 C 0 km/h
161 24-04-2009 08:08:30 7.4 C 6.2 g/m*3 7.4 C 0 km/h
162 24-04-2009 08:20:30 7.6 C 6.2 g/m*3 7.6 C 0 km/h
163 24-04-2009 08:32:30 7.9 C 6.32 g/m*3 7.9 C 0 km/h
164 24-04-2009 08:44:29 8.1 C 6.16 g/m*3 8.1 C 0 km/h
165 24-04-2009 08:56:29 8.3 C 6.15 g/m*3 8.3 C 0 km/h
166 24-04-2009 09:08:29 8.7 C 6.23 g/m*3 8.7 C 0 km/h
167 24-04-2009 09:20:30 9.1 C 6.03 g/m*3 9.1 C 0 km/h
168 24-04-2009 09:32:29 9.5 C 6.01 g/m*3 9.5 C 0 km/h
169 24-04-2009 09:44:29 9.9 C 5.98 g/m*3 9.9 C 0 km/h
170 24-04-2009 09:56:29 10.4 C 5.98 g/m*3 10.4 C 0 km/h
171 24-04-2009 10:08:29 10.8 C 5.83 g/m*3 10.8 C 0 km/h
172 24-04-2009 10:20:29 11.3 C 5.81 g/m*3 11.3 C 0 km/h
173 24-04-2009 10:32:29 11.8 C 5.79 g/m*3 11.8 C 0 km/h
174 24-04-2009 10:44:29 12.4 C 5.68 g/m*3 12.4 C 0 km/h
175 24-04-2009 10:56:29 13 C 5.44 g/m*3 13 C 0 km/h
Sensor: Nr:Datum:Temp:Abs-Feuchte:Windchill:Wind:
Aussen-T/F 176 24-04-2009 11:08:29 13.3 C 5.31 g/m*3 13.3 C 0 km/h
177 24-04-2009 11:20:28 13.8 C 5.36 g/m*3 13.8 C 0 km/h
178 24-04-2009 11:32:28 14.3 C 5.41 g/m*3 14.3 C 0 km/h
179 24-04-2009 11:44:28 14.8 C 5.32 g/m*3 14.8 C 0 km/h
180 24-04-2009 11:56:28 15.3 C 5.09 g/m*3 15.3 C 0 km/h
181 24-04-2009 12:08:28 15.5 C 5.02 g/m*3 15.5 C 0 km/h
182 24-04-2009 12:20:27 15.6 C 4.79 g/m*3 15.6 C 0 km/h
183 24-04-2009 12:32:28 16.2 C 4.83 g/m*3 16.2 C 0 km/h
184 24-04-2009 12:44:27 16.8 C 4.72 g/m*3 16.8 C 0 km/h
185 24-04-2009 12:56:27 17.4 C 4.45 g/m*3 17.4 C 0 km/h
186 24-04-2009 13:08:27 18.3 C 3.91 g/m*3 18.3 C 0 km/h
187 24-04-2009 13:20:28 19.2 C 3.3 g/m*3 19.2 C 0 km/h
188 24-04-2009 13:32:27 19.6 C 3.38 g/m*3 19.6 C 0 km/h
189 24-04-2009 13:44:27 19.6 C 3.38 g/m*3 19.6 C 0 km/h
190 24-04-2009 13:56:27 19.5 C 3.36 g/m*3 19.5 C 0 km/h
191 24-04-2009 14:08:27 19.9 C 3.44 g/m*3 19.9 C 0 km/h
192 24-04-2009 14:20:27 20.6 C 3.58 g/m*3 20.6 C 0 km/h
193 24-04-2009 14:32:26 21 C 3.66 g/m*3 21 C 0 km/h
194 24-04-2009 14:44:26 20.8 C 3.62 g/m*3 20.8 C 0 km/h
195 24-04-2009 14:56:26 21 C 3.66 g/m*3 21 C 0 km/h
196 24-04-2009 15:08:26 21.8 C 3.84 g/m*3 21.8 C 0 km/h
197 24-04-2009 15:20:26 22.3 C 3.95 g/m*3 22.3 C 0 km/h
198 24-04-2009 15:32:26 22.8 C 4.06 g/m*3 22.8 C 0 km/h
199 24-04-2009 15:44:26 22.9 C 4.09 g/m*3 22.9 C 0 km/h
200 24-04-2009 15:56:26 23.7 C 4.28 g/m*3 23.7 C 0 km/h
Sensor: Nr:Datum:Temp:Abs-Feuchte:Windchill:Wind:
Aussen-T/F 201 24-04-2009 16:08:26 23.1 C 4.13 g/m*3 23.1 C 0 km/h
202 24-04-2009 16:20:25 24.2 C 4.4 g/m*3 24.2 C 0 km/h
203 24-04-2009 16:32:25 24 C 4.35 g/m*3 24 C 0 km/h
204 24-04-2009 16:44:25 24.4 C 4.45 g/m*3 24.4 C 0 km/h
205 24-04-2009 16:56:25 23.6 C 4.25 g/m*3 23.6 C 0 km/h
206 24-04-2009 17:08:25 23.6 C 4.25 g/m*3 23.6 C 0 km/h
207 24-04-2009 17:20:24 24.1 C 4.38 g/m*3 24.1 C 0 km/h
208 24-04-2009 17:32:25 24.2 C 4.4 g/m*3 24.2 C 0 km/h
209 24-04-2009 17:44:24 24.4 C 4.45 g/m*3 24.4 C 0 km/h
210 24-04-2009 17:56:24 24.5 C 4.48 g/m*3 24.5 C 0 km/h
211 24-04-2009 18:08:24 24.8 C 4.55 g/m*3 24.8 C 0 km/h
212 24-04-2009 18:20:25 24.2 C 4.4 g/m*3 24.2 C 0 km/h
213 24-04-2009 18:32:24 24.2 C 4.4 g/m*3 24.2 C 0 km/h
214 24-04-2009 18:44:24 24.5 C 4.48 g/m*3 24.5 C 0 km/h
215 24-04-2009 18:56:24 24.4 C 4.45 g/m*3 24.4 C 0 km/h
216 24-04-2009 19:08:24 24.1 C 4.38 g/m*3 24.1 C 0 km/h
217 24-04-2009 19:20:24 24.1 C 4.38 g/m*3 24.1 C 0 km/h
218 24-04-2009 19:32:23 22.9 C 4.09 g/m*3 22.9 C 0 km/h
219 24-04-2009 19:44:24 22.7 C 4.04 g/m*3 22.7 C 0 km/h
220 24-04-2009 19:56:24 22.2 C 4.32 g/m*3 22.2 C 0 km/h
221 24-04-2009 20:08:23 20.9 C 4.55 g/m*3 20.9 C 0 km/h
222 24-04-2009 20:20:23 19.6 C 4.9 g/m*3 19.6 C 0 km/h
223 24-04-2009 20:32:23 18.4 C 4.88 g/m*3 18.4 C 0 km/h
224 24-04-2009 20:44:23 17.3 C 4.86 g/m*3 17.3 C 0 km/h
225 24-04-2009 20:56:23 16.6 C 4.94 g/m*3 16.6 C 0 km/h
Sensor: Nr:Datum:Temp:Abs-Feuchte:Windchill:Wind:
Aussen-T/F 226 24-04-2009 21:08:23 15.9 C 5.01 g/m*3 15.9 C 0 km/h
227 24-04-2009 21:20:23 15.4 C 4.99 g/m*3 15.4 C 0 km/h
228 24-04-2009 21:32:22 15.1 C 5.16 g/m*3 15.1 C 0 km/h
229 24-04-2009 21:44:22 15 C 5.13 g/m*3 15 C 0 km/h
230 24-04-2009 21:56:22 14.8 C 5.19 g/m*3 14.8 C 0 km/h
231 24-04-2009 22:09:22 14.5 C 5.22 g/m*3 14.5 C 0 km/h
232 24-04-2009 22:21:22 14.2 C 5.25 g/m*3 14.2 C 0 km/h
233 24-04-2009 22:33:22 14.1 C 5.46 g/m*3 14.1 C 0 km/h
234 24-04-2009 22:45:23 14 C 5.31 g/m*3 14 C 0 km/h
235 24-04-2009 22:57:23 13.7 C 5.33 g/m*3 13.7 C 0 km/h
236 24-04-2009 23:09:23 13.3 C 5.43 g/m*3 13.3 C 0 km/h
237 24-04-2009 23:21:23 13.1 C 5.48 g/m*3 13.1 C 0 km/h
238 24-04-2009 23:33:23 13.1 C 5.71 g/m*3 13.1 C 0 km/h
239 24-04-2009 23:45:23 12.8 C 5.82 g/m*3 12.8 C 0 km/h
240 24-04-2009 23:57:23 12.4 C 5.79 g/m*3 12.4 C 0 km/h
241 25-04-2009 00:09:23 12.2 C 5.83 g/m*3 12.2 C 0 km/h
242 25-04-2009 00:21:23 11.9 C 6.04 g/m*3 11.9 C 0 km/h
243 25-04-2009 00:33:23 11.4 C 6.06 g/m*3 11.4 C 0 km/h
244 25-04-2009 00:45:23 11.3 C 6.12 g/m*3 11.3 C 0 km/h
245 25-04-2009 00:57:23 11 C 6.01 g/m*3 11 C 0 km/h
246 25-04-2009 01:09:23 10.9 C 6.07 g/m*3 10.9 C 0 km/h
247 25-04-2009 01:21:23 10.7 C 6.09 g/m*3 10.7 C 0 km/h
248 25-04-2009 01:33:23 10.4 C 6.07 g/m*3 10.4 C 0 km/h
249 25-04-2009 01:45:23 10.3 C 6.03 g/m*3 10.3 C 0 km/h
250 25-04-2009 01:57:23 10.1 C 6.05 g/m*3 10.1 C 0 km/h
Sensor: Nr:Datum:Temp:Abs-Feuchte:Windchill:Wind:
Aussen-T/F 251 25-04-2009 02:09:23 9.8 C 6.12 g/m*3 9.8 C 0 km/h
252 25-04-2009 02:21:23 9.6 C 6.05 g/m*3 9.6 C 0 km/h
253 25-04-2009 02:33:23 9.4 C 6.15 g/m*3 9.4 C 0 km/h
254 25-04-2009 02:45:24 9.1 C 6.12 g/m*3 9.1 C 0 km/h
255 25-04-2009 02:57:24 8.9 C 6.22 g/m*3 8.9 C 0 km/h
256 25-04-2009 03:09:24 8.7 C 6.14 g/m*3 8.7 C 0 km/h
257 25-04-2009 03:21:24 8.6 C 6.1 g/m*3 8.6 C 0 km/h
258 25-04-2009 03:33:24 8.4 C 6.11 g/m*3 8.4 C 0 km/h
259 25-04-2009 03:45:24 8.4 C 6.11 g/m*3 8.4 C 0 km/h
260 25-04-2009 03:57:24 8.1 C 6.07 g/m*3 8.1 C 0 km/h
261 25-04-2009 04:09:24 8.2 C 6.2 g/m*3 8.2 C 0 km/h
262 25-04-2009 04:21:24 8.1 C 6.57 g/m*3 8.1 C 0 km/h
263 25-04-2009 04:33:24 7.8 C 6.86 g/m*3 7.8 C 0 km/h
264 25-04-2009 04:45:24 7.3 C 6.79 g/m*3 7.3 C 0 km/h
265 25-04-2009 04:57:24 7.4 C 6.92 g/m*3 7.4 C 0 km/h
266 25-04-2009 05:09:24 7.3 C 6.87 g/m*3 7.3 C 0 km/h
267 25-04-2009 05:21:24 7.4 C 7 g/m*3 7.4 C 0 km/h
268 25-04-2009 05:33:24 7.2 C 6.91 g/m*3 7.2 C 0 km/h
269 25-04-2009 05:45:24 6.9 C 6.77 g/m*3 6.9 C 0 km/h
270 25-04-2009 05:57:24 6.9 C 6.77 g/m*3 6.9 C 0 km/h
271 25-04-2009 06:09:24 6.6 C 6.64 g/m*3 6.6 C 0 km/h
272 25-04-2009 06:21:24 6.5 C 6.6 g/m*3 6.5 C 0 km/h
273 25-04-2009 06:33:24 6.4 C 6.56 g/m*3 6.4 C 0 km/h
274 25-04-2009 06:45:24 6.4 C 6.56 g/m*3 6.4 C 0 km/h
275 25-04-2009 06:57:25 6.3 C 6.51 g/m*3 6.3 C 0 km/h
Sensor: Nr:Datum:Temp:Abs-Feuchte:Windchill:Wind:
Aussen-T/F 276 25-04-2009 07:09:25 6.3 C 6.51 g/m*3 6.3 C 0 km/h
277 25-04-2009 07:21:22 6.4 C 6.63 g/m*3 6.4 C 0 km/h
278 25-04-2009 07:33:22 6.5 C 6.67 g/m*3 6.5 C 0 km/h
279 25-04-2009 07:45:21 6.7 C 6.76 g/m*3 6.7 C 0 km/h
280 25-04-2009 07:57:21 7 C 6.82 g/m*3 7 C 0 km/h
281 25-04-2009 08:09:22 7.1 C 6.94 g/m*3 7.1 C 0 km/h
282 25-04-2009 08:21:21 7.5 C 7.12 g/m*3 7.5 C 0 km/h
283 25-04-2009 08:33:21 7.7 C 7.22 g/m*3 7.7 C 0 km/h
284 25-04-2009 08:45:21 8 C 7.28 g/m*3 8 C 0 km/h
285 25-04-2009 08:57:21 8.5 C 7.51 g/m*3 8.5 C 0 km/h
286 25-04-2009 09:09:20 8.9 C 7.62 g/m*3 8.9 C 0 km/h
287 25-04-2009 09:21:21 9.6 C 7.88 g/m*3 9.6 C 0 km/h
288 25-04-2009 09:33:20 10.4 C 8.1 g/m*3 10.4 C 0 km/h
289 25-04-2009 09:45:20 11.3 C 8.16 g/m*3 11.3 C 0 km/h
290 25-04-2009 09:57:20 12.1 C 8.26 g/m*3 12.1 C 0 km/h
291 25-04-2009 10:09:20 13 C 7.94 g/m*3 13 C 0 km/h
292 25-04-2009 10:21:20 14.1 C 6.67 g/m*3 14.1 C 0 km/h
293 25-04-2009 10:33:20 15.3 C 6.01 g/m*3 15.3 C 0 km/h
294 25-04-2009 10:45:20 15.8 C 6.06 g/m*3 15.8 C 0 km/h
295 25-04-2009 10:57:20 16.3 C 5.97 g/m*3 16.3 C 0 km/h
296 25-04-2009 11:09:20 16.9 C 6.04 g/m*3 16.9 C 0 km/h
297 25-04-2009 11:21:19 16.6 C 6.07 g/m*3 16.6 C 0 km/h
298 25-04-2009 11:33:19 16.6 C 6.22 g/m*3 16.6 C 0 km/h
299 25-04-2009 11:45:19 16.3 C 6.24 g/m*3 16.3 C 0 km/h
300 25-04-2009 11:57:19 17.3 C 6.33 g/m*3 17.3 C 0 km/h
Sensor: Nr:Datum:Temp:Abs-Feuchte:Windchill:Wind:
Aussen-T/F 301 25-04-2009 12:09:19 17.8 C 6.37 g/m*3 17.8 C 0 km/h
302 25-04-2009 12:21:18 17.6 C 6.45 g/m*3 17.6 C 0 km/h
303 25-04-2009 12:33:19 18.1 C 6.49 g/m*3 18.1 C 0 km/h
304 25-04-2009 12:45:19 18.3 C 6.41 g/m*3 18.3 C 0 km/h
305 25-04-2009 12:57:19 18.5 C 6.49 g/m*3 18.5 C 0 km/h
306 25-04-2009 13:09:18 18.8 C 6.44 g/m*3 18.8 C 0 km/h
307 25-04-2009 13:21:19 18.9 C 6.32 g/m*3 18.9 C 0 km/h
308 25-04-2009 13:33:18 19.5 C 6.38 g/m*3 19.5 C 0 km/h
309 25-04-2009 13:45:18 19.6 C 6.42 g/m*3 19.6 C 0 km/h
310 25-04-2009 13:57:18 19.9 C 6.53 g/m*3 19.9 C 0 km/h
311 25-04-2009 14:09:18 20.3 C 6.51 g/m*3 20.3 C 0 km/h
312 25-04-2009 14:21:18 20.3 C 6.51 g/m*3 20.3 C 0 km/h
313 25-04-2009 14:33:17 20.9 C 6.74 g/m*3 20.9 C 0 km/h
314 25-04-2009 14:45:17 20.7 C 6.48 g/m*3 20.7 C 0 km/h
315 25-04-2009 14:57:17 19.9 C 6.36 g/m*3 19.9 C 0 km/h
316 25-04-2009 15:09:17 19.5 C 6.55 g/m*3 19.5 C 0 km/h
317 25-04-2009 15:21:17 19.9 C 6.53 g/m*3 19.9 C 0 km/h
318 25-04-2009 15:33:17 20.8 C 6.34 g/m*3 20.8 C 0 km/h
319 25-04-2009 15:45:17 21.7 C 6.29 g/m*3 21.7 C 0 km/h
320 25-04-2009 15:57:17 21.8 C 6.14 g/m*3 21.8 C 0 km/h
321 25-04-2009 16:09:17 21.5 C 6.03 g/m*3 21.5 C 0 km/h
322 25-04-2009 16:21:16 21.6 C 6.07 g/m*3 21.6 C 0 km/h
323 25-04-2009 16:33:16 22 C 6.02 g/m*3 22 C 0 km/h
324 25-04-2009 16:45:16 21 C 6.23 g/m*3 21 C 0 km/h
325 25-04-2009 16:57:16 20.9 C 6.37 g/m*3 20.9 C 0 km/h
Sensor: Nr:Datum:Temp:Abs-Feuchte:Windchill:Wind:
Aussen-T/F 326 25-04-2009 17:09:16 20.9 C 6.56 g/m*3 20.9 C 0 km/h
327 25-04-2009 17:21:15 20.6 C 6.44 g/m*3 20.6 C 0 km/h
328 25-04-2009 17:33:16 21.4 C 6.37 g/m*3 21.4 C 0 km/h
329 25-04-2009 17:45:16 22.1 C 6.05 g/m*3 22.1 C 0 km/h
330 25-04-2009 17:57:16 22.7 C 6.26 g/m*3 22.7 C 0 km/h
331 25-04-2009 18:09:15 22.4 C 6.16 g/m*3 22.4 C 0 km/h
332 25-04-2009 18:21:16 22.7 C 6.26 g/m*3 22.7 C 0 km/h
333 25-04-2009 18:33:15 22.4 C 6.16 g/m*3 22.4 C 0 km/h
334 25-04-2009 18:45:15 22.9 C 6.34 g/m*3 22.9 C 0 km/h
335 25-04-2009 18:57:15 22.6 C 6.03 g/m*3 22.6 C 0 km/h
336 25-04-2009 19:09:15 23.2 C 6.24 g/m*3 23.2 C 0 km/h
337 25-04-2009 19:21:15 23.7 C 6.42 g/m*3 23.7 C 0 km/h
338 25-04-2009 19:33:15 23.2 C 6.24 g/m*3 23.2 C 0 km/h
339 25-04-2009 19:45:15 22.2 C 6.87 g/m*3 22.2 C 0 km/h
340 25-04-2009 19:57:15 21.2 C 7.04 g/m*3 21.2 C 0 km/h
341 25-04-2009 20:09:14 20.2 C 7.17 g/m*3 20.2 C 0 km/h
342 25-04-2009 20:21:14 19.3 C 7.3 g/m*3 19.3 C 0 km/h
343 25-04-2009 20:33:14 18.6 C 7.48 g/m*3 18.6 C 0 km/h
344 25-04-2009 20:45:14 18.2 C 7.46 g/m*3 18.2 C 0 km/h
345 25-04-2009 20:57:14 17.6 C 7.35 g/m*3 17.6 C 0 km/h
346 25-04-2009 21:09:14 17.2 C 7.32 g/m*3 17.2 C 0 km/h
347 25-04-2009 21:21:14 17 C 7.52 g/m*3 17 C 0 km/h
348 25-04-2009 21:33:13 17 C 7.52 g/m*3 17 C 0 km/h
349 25-04-2009 21:45:14 17 C 7.52 g/m*3 17 C 0 km/h
350 25-04-2009 21:57:14 17 C 7.52 g/m*3 17 C 0 km/h
Sensor: Nr:Datum:Temp:Abs-Feuchte:Windchill:Wind:
Aussen-T/F 351 25-04-2009 22:10:14 16.5 C 7.58 g/m*3 16.5 C 0 km/h
352 25-04-2009 22:22:14 16.4 C 7.54 g/m*3 16.4 C 0 km/h
353 25-04-2009 22:34:14 16.1 C 7.54 g/m*3 16.1 C 0 km/h
354 25-04-2009 22:46:14 16.1 C 7.54 g/m*3 16.1 C 0 km/h
355 25-04-2009 22:58:14 16 C 7.63 g/m*3 16 C 0 km/h
356 25-04-2009 23:10:14 15.6 C 7.98 g/m*3 15.6 C 0 km/h
357 25-04-2009 23:22:14 15.1 C 7.87 g/m*3 15.1 C 0 km/h
358 25-04-2009 23:34:14 14.9 C 7.9 g/m*3 14.9 C 0 km/h
359 25-04-2009 23:46:15 15 C 7.82 g/m*3 15 C 0 km/h
360 25-04-2009 23:58:15 14.9 C 8.03 g/m*3 14.9 C 0 km/h
361 26-04-2009 00:10:15 14.8 C 7.98 g/m*3 14.8 C 0 km/h
362 26-04-2009 00:22:15 14.9 C 8.16 g/m*3 14.9 C 0 km/h
363 26-04-2009 00:34:15 14.8 C 8.11 g/m*3 14.8 C 0 km/h
364 26-04-2009 00:46:15 14.8 C 8.23 g/m*3 14.8 C 0 km/h
365 26-04-2009 00:58:15 14.7 C 8.18 g/m*3 14.7 C 0 km/h
366 26-04-2009 01:10:15 14.2 C 8.06 g/m*3 14.2 C 0 km/h
367 26-04-2009 01:22:15 14 C 8.08 g/m*3 14 C 0 km/h
368 26-04-2009 01:34:15 14 C 8.2 g/m*3 14 C 0 km/h
369 26-04-2009 01:46:15 14.1 C 8.25 g/m*3 14.1 C 0 km/h
370 26-04-2009 01:58:15 14 C 8.08 g/m*3 14 C 0 km/h
371 26-04-2009 02:10:15 14.1 C 8.25 g/m*3 14.1 C 0 km/h
372 26-04-2009 02:22:15 14 C 8.2 g/m*3 14 C 0 km/h
373 26-04-2009 02:34:15 14 C 8.2 g/m*3 14 C 0 km/h
374 26-04-2009 02:46:15 14 C 8.08 g/m*3 14 C 0 km/h
375 26-04-2009 02:58:15 13.9 C 8.15 g/m*3 13.9 C 0 km/h
Sensor: Nr:Datum:Temp:Abs-Feuchte:Windchill:Wind:
Aussen-T/F 376 26-04-2009 03:10:15 13.8 C 8.22 g/m*3 13.8 C 0 km/h
377 26-04-2009 03:22:15 13.7 C 8.17 g/m*3 13.7 C 0 km/h
378 26-04-2009 03:34:15 13.6 C 8.12 g/m*3 13.6 C 0 km/h
379 26-04-2009 03:46:16 13.5 C 8.07 g/m*3 13.5 C 0 km/h
380 26-04-2009 03:58:16 13.4 C 8.14 g/m*3 13.4 C 0 km/h
381 26-04-2009 04:10:16 13.4 C 8.25 g/m*3 13.4 C 0 km/h
382 26-04-2009 04:22:16 13.3 C 8.2 g/m*3 13.3 C 0 km/h
383 26-04-2009 04:34:16 13.2 C 8.15 g/m*3 13.2 C 0 km/h
384 26-04-2009 04:46:16 13 C 8.05 g/m*3 13 C 0 km/h
385 26-04-2009 04:58:16 13.1 C 8.22 g/m*3 13.1 C 0 km/h
386 26-04-2009 05:10:16 13 C 8.17 g/m*3 13 C 0 km/h
387 26-04-2009 05:22:16 12.9 C 8.23 g/m*3 12.9 C 0 km/h
388 26-04-2009 05:34:16 12.8 C 8.29 g/m*3 12.8 C 0 km/h
389 26-04-2009 05:46:16 12.8 C 8.18 g/m*3 12.8 C 0 km/h
390 26-04-2009 05:58:16 12.6 C 8.19 g/m*3 12.6 C 0 km/h
391 26-04-2009 06:10:16 12.4 C 8.09 g/m*3 12.4 C 0 km/h
392 26-04-2009 06:22:16 12.2 C 8.2 g/m*3 12.2 C 0 km/h
393 26-04-2009 06:34:16 12 C 8.1 g/m*3 12 C 0 km/h
394 26-04-2009 06:46:15 11.9 C 8.26 g/m*3 11.9 C 0 km/h
395 26-04-2009 06:58:15 11.7 C 8.37 g/m*3 11.7 C 0 km/h
396 26-04-2009 07:10:14 11.8 C 8.42 g/m*3 11.8 C 0 km/h
397 26-04-2009 07:22:14 11.8 C 8.42 g/m*3 11.8 C 0 km/h
398 26-04-2009 07:34:14 11.8 C 8.42 g/m*3 11.8 C 0 km/h
399 26-04-2009 07:46:14 12.2 C 8.63 g/m*3 12.2 C 0 km/h
400 26-04-2009 07:58:14 12.3 C 8.58 g/m*3 12.3 C 0 km/h
Sensor: Nr:Datum:Temp:Abs-Feuchte:Windchill:Wind:
Aussen-T/F 401 26-04-2009 08:10:13 12.6 C 8.63 g/m*3 12.6 C 0 km/h
402 26-04-2009 08:22:14 12.9 C 8.68 g/m*3 12.9 C 0 km/h
403 26-04-2009 08:34:13 13.3 C 8.78 g/m*3 13.3 C 0 km/h
404 26-04-2009 08:46:14 13.6 C 8.71 g/m*3 13.6 C 0 km/h
405 26-04-2009 08:58:14 14.2 C 8.55 g/m*3 14.2 C 0 km/h
406 26-04-2009 09:10:13 14.9 C 8.54 g/m*3 14.9 C 0 km/h
407 26-04-2009 09:22:13 15.1 C 8.39 g/m*3 15.1 C 0 km/h
408 26-04-2009 09:34:13 15.9 C 8.53 g/m*3 15.9 C 0 km/h
409 26-04-2009 09:46:13 16.4 C 8.23 g/m*3 16.4 C 0 km/h
410 26-04-2009 09:58:13 16.8 C 8.29 g/m*3 16.8 C 0 km/h
411 26-04-2009 10:10:12 17.2 C 8.05 g/m*3 17.2 C 0 km/h
412 26-04-2009 10:22:13 17.2 C 8.05 g/m*3 17.2 C 0 km/h
413 26-04-2009 10:34:13 17.5 C 8.2 g/m*3 17.5 C 0 km/h
414 26-04-2009 10:46:12 17.1 C 8.01 g/m*3 17.1 C 0 km/h
415 26-04-2009 10:58:12 17.7 C 8.3 g/m*3 17.7 C 0 km/h
416 26-04-2009 11:10:12 17.8 C 8.2 g/m*3 17.8 C 0 km/h
417 26-04-2009 11:22:12 18.4 C 8.18 g/m*3 18.4 C 0 km/h
418 26-04-2009 11:34:12 19.1 C 7.54 g/m*3 19.1 C 0 km/h
419 26-04-2009 11:46:11 20.1 C 7.47 g/m*3 20.1 C 0 km/h
420 26-04-2009 11:58:11 20.4 C 7.08 g/m*3 20.4 C 0 km/h
421 26-04-2009 12:10:12 20.5 C 6.94 g/m*3 20.5 C 0 km/h
422 26-04-2009 12:22:11 21.1 C 6.82 g/m*3 21.1 C 0 km/h
423 26-04-2009 12:34:11 21.8 C 6.72 g/m*3 21.8 C 0 km/h
424 26-04-2009 12:46:11 22.3 C 6.52 g/m*3 22.3 C 0 km/h
425 26-04-2009 12:58:11 22 C 6.21 g/m*3 22 C 0 km/h
Sensor: Nr:Datum:Temp:Abs-Feuchte:Windchill:Wind:
Aussen-T/F 426 26-04-2009 13:10:11 22.6 C 6.63 g/m*3 22.6 C 0 km/h
427 26-04-2009 13:22:11 23.5 C 6.34 g/m*3 23.5 C 0 km/h
428 26-04-2009 13:34:10 24.3 C 6.2 g/m*3 24.3 C 0 km/h
429 26-04-2009 13:46:11 24.1 C 5.91 g/m*3 24.1 C 0 km/h
430 26-04-2009 13:58:11 24.3 C 6.2 g/m*3 24.3 C 0 km/h
431 26-04-2009 14:10:10 22.8 C 5.49 g/m*3 22.8 C 0 km/h
432 26-04-2009 14:22:10 23.9 C 5.62 g/m*3 23.9 C 0 km/h
433 26-04-2009 14:34:10 24.6 C 5.85 g/m*3 24.6 C 0 km/h
434 26-04-2009 14:46:10 25.4 C 5.89 g/m*3 25.4 C 0 km/h
435 26-04-2009 14:58:11 25.5 C 5.68 g/m*3 25.5 C 0 km/h
436 26-04-2009 15:10:09 25.1 C 5.56 g/m*3 25.1 C 0 km/h
437 26-04-2009 15:22:10 25.2 C 5.82 g/m*3 25.2 C 0 km/h
438 26-04-2009 15:34:10 25.7 C 5.51 g/m*3 25.7 C 0 km/h
439 26-04-2009 15:46:09 24.7 C 5.66 g/m*3 24.7 C 0 km/h
440 26-04-2009 15:58:09 24 C 5.66 g/m*3 24 C 0 km/h
441 26-04-2009 16:10:10 23.5 C 5.71 g/m*3 23.5 C 0 km/h
442 26-04-2009 16:22:09 26 C 5.6 g/m*3 26 C 0 km/h
443 26-04-2009 16:34:09 27.5 C 5.29 g/m*3 27.5 C 0 km/h
444 26-04-2009 16:46:08 26.5 C 5.01 g/m*3 26.5 C 0 km/h
445 26-04-2009 16:58:08 27.7 C 5.35 g/m*3 27.7 C 0 km/h
446 26-04-2009 17:10:09 26.8 C 5.09 g/m*3 26.8 C 0 km/h
447 26-04-2009 17:22:08 28 C 5.44 g/m*3 28 C 0 km/h
448 26-04-2009 17:34:08 28.2 C 5.5 g/m*3 28.2 C 0 km/h
449 26-04-2009 17:46:08 29.5 C 5.9 g/m*3 29.5 C 0 km/h
450 26-04-2009 17:58:08 28.5 C 5.59 g/m*3 28.5 C 0 km/h
Sensor: Nr:Datum:Temp:Abs-Feuchte:Windchill:Wind:
Aussen-T/F 451 26-04-2009 18:10:08 26.7 C 5.06 g/m*3 26.7 C 0 km/h
452 26-04-2009 18:22:08 27.1 C 5.18 g/m*3 27.1 C 0 km/h
453 26-04-2009 18:34:07 26.4 C 4.98 g/m*3 26.4 C 0 km/h
454 26-04-2009 18:46:08 25.1 C 5.79 g/m*3 25.1 C 0 km/h
455 26-04-2009 18:58:08 24.1 C 5.69 g/m*3 24.1 C 0 km/h
456 26-04-2009 19:10:07 23.6 C 6.17 g/m*3 23.6 C 0 km/h
457 26-04-2009 19:22:07 22.7 C 6.26 g/m*3 22.7 C 0 km/h
458 26-04-2009 19:34:07 22.2 C 6.28 g/m*3 22.2 C 0 km/h
459 26-04-2009 19:46:07 21.8 C 6.52 g/m*3 21.8 C 0 km/h
460 26-04-2009 19:58:07 21.3 C 6.52 g/m*3 21.3 C 0 km/h
461 26-04-2009 20:10:06 21.1 C 6.63 g/m*3 21.1 C 0 km/h
462 26-04-2009 20:22:07 20.7 C 6.84 g/m*3 20.7 C 0 km/h
463 26-04-2009 20:34:07 20.2 C 6.82 g/m*3 20.2 C 0 km/h
464 26-04-2009 20:46:06 20.1 C 7.13 g/m*3 20.1 C 0 km/h
465 26-04-2009 20:58:06 19.6 C 7.09 g/m*3 19.6 C 0 km/h
466 26-04-2009 21:10:06 19.5 C 7.05 g/m*3 19.5 C 0 km/h
467 26-04-2009 21:22:06 19.3 C 7.13 g/m*3 19.3 C 0 km/h
468 26-04-2009 21:34:06 19.2 C 7.42 g/m*3 19.2 C 0 km/h
469 26-04-2009 21:46:06 18.8 C 7.73 g/m*3 18.8 C 0 km/h
470 26-04-2009 21:58:07 17.7 C 8.6 g/m*3 17.7 C 0 km/h
471 26-04-2009 22:10:05 16.6 C 9.46 g/m*3 16.6 C 0 km/h
472 26-04-2009 22:22:06 16.3 C 10.13 g/m*3 16.3 C 0 km/h
473 26-04-2009 22:34:06 15.9 C 9.62 g/m*3 15.9 C 0 km/h
474 26-04-2009 22:47:05 15.6 C 9.97 g/m*3 15.6 C 0 km/h
475 26-04-2009 22:59:05 15.4 C 10.25 g/m*3 15.4 C 0 km/h
Sensor: Nr:Datum:Temp:Abs-Feuchte:Windchill:Wind:
Aussen-T/F 476 26-04-2009 23:11:05 15.4 C 10.25 g/m*3 15.4 C 0 km/h
477 26-04-2009 23:23:05 15.6 C 10.24 g/m*3 15.6 C 0 km/h
478 26-04-2009 23:35:05 15.8 C 9.83 g/m*3 15.8 C 0 km/h
479 26-04-2009 23:47:06 16 C 9.67 g/m*3 16 C 0 km/h
480 26-04-2009 23:59:06 15.9 C 9.75 g/m*3 15.9 C 0 km/h
481 27-04-2009 00:11:06 16 C 9.67 g/m*3 16 C 0 km/h
482 27-04-2009 00:23:06 15.8 C 9.69 g/m*3 15.8 C 0 km/h
483 27-04-2009 00:35:06 15.7 C 9.63 g/m*3 15.7 C 0 km/h
484 27-04-2009 00:47:06 15.7 C 9.63 g/m*3 15.7 C 0 km/h
485 27-04-2009 00:59:06 15.7 C 9.63 g/m*3 15.7 C 0 km/h
486 27-04-2009 01:11:06 15.5 C 9.52 g/m*3 15.5 C 0 km/h
487 27-04-2009 01:23:06 15.3 C 9.53 g/m*3 15.3 C 0 km/h
488 27-04-2009 01:35:06 15 C 9.36 g/m*3 15 C 0 km/h
489 27-04-2009 01:47:06 14.9 C 9.43 g/m*3 14.9 C 0 km/h
490 27-04-2009 01:59:06 14.7 C 9.32 g/m*3 14.7 C 0 km/h
491 27-04-2009 02:11:06 14.5 C 9.08 g/m*3 14.5 C 0 km/h
492 27-04-2009 02:23:06 14.2 C 9.04 g/m*3 14.2 C 0 km/h
493 27-04-2009 02:35:06 14 C 8.93 g/m*3 14 C 0 km/h
494 27-04-2009 02:47:06 14.1 C 8.86 g/m*3 14.1 C 0 km/h
495 27-04-2009 02:59:06 14.1 C 8.74 g/m*3 14.1 C 0 km/h
496 27-04-2009 03:11:06 14.1 C 8.62 g/m*3 14.1 C 0 km/h
497 27-04-2009 03:23:06 14.1 C 8.5 g/m*3 14.1 C 0 km/h
498 27-04-2009 03:35:06 14.1 C 8.5 g/m*3 14.1 C 0 km/h
499 27-04-2009 03:47:07 14 C 8.32 g/m*3 14 C 0 km/h
500 27-04-2009 03:59:07 13.8 C 8.34 g/m*3 13.8 C 0 km/h
Sensor: Nr:Datum:Temp:Abs-Feuchte:Windchill:Wind:
Aussen-T/F 501 27-04-2009 04:11:07 14 C 8.32 g/m*3 14 C 0 km/h
502 27-04-2009 04:23:07 12.8 C 8.62 g/m*3 12.8 C 0 km/h
503 27-04-2009 04:35:07 12.6 C 9.18 g/m*3 12.6 C 0 km/h
504 27-04-2009 04:47:07 12.1 C 9.01 g/m*3 12.1 C 0 km/h
505 27-04-2009 04:59:07 11.5 C 8.99 g/m*3 11.5 C 0 km/h
506 27-04-2009 05:11:07 11.5 C 8.99 g/m*3 11.5 C 0 km/h
507 27-04-2009 05:23:07 11.8 C 9.26 g/m*3 11.8 C 0 km/h
508 27-04-2009 05:35:07 11.9 C 9.32 g/m*3 11.9 C 0 km/h
509 27-04-2009 05:47:07 11.8 C 9.16 g/m*3 11.8 C 0 km/h
510 27-04-2009 05:59:07 11.5 C 8.88 g/m*3 11.5 C 0 km/h
511 27-04-2009 06:11:07 11.3 C 8.77 g/m*3 11.3 C 0 km/h
512 27-04-2009 06:23:07 11.5 C 8.88 g/m*3 11.5 C 0 km/h
513 27-04-2009 06:35:07 11.7 C 8.99 g/m*3 11.7 C 0 km/h
514 27-04-2009 06:47:07 12 C 9.06 g/m*3 12 C 0 km/h
515 27-04-2009 06:59:07 12.1 C 9.01 g/m*3 12.1 C 0 km/h
516 27-04-2009 07:11:05 12.1 C 8.79 g/m*3 12.1 C 0 km/h
517 27-04-2009 07:23:05 12.2 C 8.74 g/m*3 12.2 C 0 km/h
518 27-04-2009 07:35:05 12.4 C 8.85 g/m*3 12.4 C 0 km/h
519 27-04-2009 07:47:04 12.7 C 8.68 g/m*3 12.7 C 0 km/h
520 27-04-2009 07:59:04 12.7 C 8.68 g/m*3 12.7 C 0 km/h
521 27-04-2009 08:11:05 13 C 8.51 g/m*3 13 C 0 km/h
522 27-04-2009 08:23:04 13.1 C 8.1 g/m*3 13.1 C 0 km/h
523 27-04-2009 08:35:04 13.4 C 8.14 g/m*3 13.4 C 0 km/h
524 27-04-2009 08:47:04 13.6 C 8.12 g/m*3 13.6 C 0 km/h
525 27-04-2009 08:59:04 13.5 C 7.84 g/m*3 13.5 C 0 km/h
Sensor: Nr:Datum:Temp:Abs-Feuchte:Windchill:Wind:
Aussen-T/F 526 27-04-2009 09:11:04 13.2 C 7.46 g/m*3 13.2 C 0 km/h
527 27-04-2009 09:23:04 13.1 C 7.53 g/m*3 13.1 C 0 km/h
528 27-04-2009 09:35:04 13.2 C 7.46 g/m*3 13.2 C 0 km/h
529 27-04-2009 09:47:03 13.4 C 7.44 g/m*3 13.4 C 0 km/h
530 27-04-2009 09:59:03 14 C 7.24 g/m*3 14 C 0 km/h
531 27-04-2009 10:11:04 14.5 C 7.09 g/m*3 14.5 C 0 km/h
532 27-04-2009 10:23:03 14.7 C 6.92 g/m*3 14.7 C 0 km/h
533 27-04-2009 10:35:03 14.4 C 6.55 g/m*3 14.4 C 0 km/h
534 27-04-2009 10:47:03 14.6 C 6.63 g/m*3 14.6 C 0 km/h
535 27-04-2009 10:59:03 14.8 C 6.46 g/m*3 14.8 C 0 km/h
536 27-04-2009 11:11:03 14.8 C 6.33 g/m*3 14.8 C 0 km/h
537 27-04-2009 11:23:02 14.9 C 6.12 g/m*3 14.9 C 0 km/h
538 27-04-2009 11:35:03 15.5 C 6.08 g/m*3 15.5 C 0 km/h
539 27-04-2009 11:47:02 14.9 C 6.12 g/m*3 14.9 C 0 km/h
540 27-04-2009 11:59:02 15.5 C 5.95 g/m*3 15.5 C 0 km/h
541 27-04-2009 12:11:02 15.6 C 5.72 g/m*3 15.6 C 0 km/h
542 27-04-2009 12:23:01 15.3 C 5.75 g/m*3 15.3 C 0 km/h
543 27-04-2009 12:35:02 15.4 C 5.91 g/m*3 15.4 C 0 km/h
544 27-04-2009 12:47:02 15.5 C 5.95 g/m*3 15.5 C 0 km/h
545 27-04-2009 12:59:02 15.6 C 5.98 g/m*3 15.6 C 0 km/h
546 27-04-2009 13:11:01 15.4 C 5.78 g/m*3 15.4 C 0 km/h
547 27-04-2009 13:23:02 15.4 C 5.91 g/m*3 15.4 C 0 km/h
548 27-04-2009 13:35:01 15.7 C 6.15 g/m*3 15.7 C 0 km/h
549 27-04-2009 13:47:01 16.6 C 5.93 g/m*3 16.6 C 0 km/h
550 27-04-2009 13:59:01 16.2 C 5.79 g/m*3 16.2 C 0 km/h
Sensor: Nr:Datum:Temp:Abs-Feuchte:Windchill:Wind:
Aussen-T/F 551 27-04-2009 14:11:01 17 C 5.93 g/m*3 17 C 0 km/h
552 27-04-2009 14:23:01 16.6 C 5.65 g/m*3 16.6 C 0 km/h
553 27-04-2009 14:35:01 16.4 C 5.58 g/m*3 16.4 C 0 km/h
554 27-04-2009 14:47:01 16.6 C 5.51 g/m*3 16.6 C 0 km/h
555 27-04-2009 14:59:01 16.6 C 5.37 g/m*3 16.6 C 0 km/h
556 27-04-2009 15:11:01 16.6 C 5.37 g/m*3 16.6 C 0 km/h
557 27-04-2009 15:23:00 16.6 C 5.65 g/m*3 16.6 C 0 km/h
558 27-04-2009 15:35:00 17 C 5.5 g/m*3 17 C 0 km/h
559 27-04-2009 15:47:00 17.1 C 5.24 g/m*3 17.1 C 0 km/h
560 27-04-2009 15:59:00 17.2 C 5.27 g/m*3 17.2 C 0 km/h
561 27-04-2009 16:11:00 18.5 C 5.38 g/m*3 18.5 C 0 km/h
562 27-04-2009 16:23:59 18 C 5.38 g/m*3 18 C 0 km/h
563 27-04-2009 16:35:00 17.4 C 5.19 g/m*3 17.4 C 0 km/h
564 27-04-2009 16:47:59 17.2 C 5.13 g/m*3 17.2 C 0 km/h
565 27-04-2009 16:59:59 17.6 C 5.25 g/m*3 17.6 C 0 km/h
566 27-04-2009 17:11:59 18 C 5.22 g/m*3 18 C 0 km/h
567 27-04-2009 17:23:59 19.3 C 4.98 g/m*3 19.3 C 0 km/h
568 27-04-2009 17:35:02 19.2 C 4.78 g/m*3 19.2 C 0 km/h
569 27-04-2009 17:47:01 19.3 C 4.98 g/m*3 19.3 C 0 km/h
570 27-04-2009 17:59:01 19.3 C 4.64 g/m*3 19.3 C 0 km/h
571 27-04-2009 18:11:01 19.8 C 5.12 g/m*3 19.8 C 0 km/h
572 27-04-2009 18:23:01 19.6 C 4.9 g/m*3 19.6 C 0 km/h
573 27-04-2009 18:35:01 18.4 C 5.03 g/m*3 18.4 C 0 km/h
574 27-04-2009 18:47:01 18.1 C 5.1 g/m*3 18.1 C 0 km/h
575 27-04-2009 18:59:01 18 C 4.92 g/m*3 18 C 0 km/h
Sensor: Nr:Datum:Temp:Abs-Feuchte:Windchill:Wind:
Aussen-T/F 576 27-04-2009 19:11:01 17.8 C 5.16 g/m*3 17.8 C 0 km/h
577 27-04-2009 19:23:00 18 C 5.07 g/m*3 18 C 0 km/h
578 27-04-2009 19:35:01 17.2 C 5.13 g/m*3 17.2 C 0 km/h
579 27-04-2009 19:47:00 16.9 C 5.32 g/m*3 16.9 C 0 km/h
580 27-04-2009 19:59:00 16.7 C 5.54 g/m*3 16.7 C 0 km/h
581 27-04-2009 20:11:00 16.2 C 5.52 g/m*3 16.2 C 0 km/h
582 27-04-2009 20:22:59 15.8 C 5.92 g/m*3 15.8 C 0 km/h
583 27-04-2009 20:35:00 15.4 C 5.91 g/m*3 15.4 C 0 km/h
584 27-04-2009 20:47:59 14.9 C 5.86 g/m*3 14.9 C 0 km/h
585 27-04-2009 20:59:59 14.3 C 5.9 g/m*3 14.3 C 0 km/h
586 27-04-2009 21:11:59 14.2 C 6.11 g/m*3 14.2 C 0 km/h
587 27-04-2009 21:23:00 14.3 C 6.14 g/m*3 14.3 C 0 km/h
588 27-04-2009 21:35:59 14.3 C 6.14 g/m*3 14.3 C 0 km/h
589 27-04-2009 21:48:01 14.1 C 6.07 g/m*3 14.1 C 0 km/h
590 27-04-2009 22:00:01 14.1 C 6.07 g/m*3 14.1 C 0 km/h
591 27-04-2009 22:12:01 14.1 C 6.19 g/m*3 14.1 C 0 km/h
592 27-04-2009 22:24:01 14.1 C 6.19 g/m*3 14.1 C 0 km/h
593 27-04-2009 22:36:01 13.2 C 6.89 g/m*3 13.2 C 0 km/h
594 27-04-2009 22:48:01 12.6 C 7.19 g/m*3 12.6 C 0 km/h
595 27-04-2009 23:00:01 12.5 C 7.37 g/m*3 12.5 C 0 km/h
596 27-04-2009 23:12:01 12.8 C 7.06 g/m*3 12.8 C 0 km/h
597 27-04-2009 23:24:01 12.9 C 6.99 g/m*3 12.9 C 0 km/h
598 27-04-2009 23:36:01 12.4 C 6.99 g/m*3 12.4 C 0 km/h
599 27-04-2009 23:48:01 12 C 7.25 g/m*3 12 C 0 km/h
600 28-04-2009 00:00:01 12.4 C 7.43 g/m*3 12.4 C 0 km/h
Sensor: Nr:Datum:Temp:Abs-Feuchte:Windchill:Wind:
Aussen-T/F 601 28-04-2009 00:12:01 12.5 C 7.48 g/m*3 12.5 C 0 km/h
602 28-04-2009 00:24:01 12.1 C 7.29 g/m*3 12.1 C 0 km/h
603 28-04-2009 00:36:01 11.5 C 7.23 g/m*3 11.5 C 0 km/h
604 28-04-2009 00:48:01 10.8 C 7.71 g/m*3 10.8 C 0 km/h
605 28-04-2009 01:00:01 10.7 C 8.05 g/m*3 10.7 C 0 km/h
606 28-04-2009 01:12:01 10.6 C 8.2 g/m*3 10.6 C 0 km/h
607 28-04-2009 01:24:01 10.5 C 8.24 g/m*3 10.5 C 0 km/h
608 28-04-2009 01:36:01 10.5 C 8.34 g/m*3 10.5 C 0 km/h
609 28-04-2009 01:48:02 10.6 C 8.49 g/m*3 10.6 C 0 km/h
610 28-04-2009 02:00:02 10.7 C 8.55 g/m*3 10.7 C 0 km/h
611 28-04-2009 02:12:02 10.7 C 8.55 g/m*3 10.7 C 0 km/h
612 28-04-2009 02:24:02 10.8 C 8.6 g/m*3 10.8 C 0 km/h
613 28-04-2009 02:36:02 10.9 C 8.65 g/m*3 10.9 C 0 km/h
614 28-04-2009 02:48:02 10.6 C 8.49 g/m*3 10.6 C 0 km/h
615 28-04-2009 03:00:02 10.5 C 8.53 g/m*3 10.5 C 0 km/h
616 28-04-2009 03:12:02 10.5 C 8.63 g/m*3 10.5 C 0 km/h
617 28-04-2009 03:24:02 10.6 C 8.69 g/m*3 10.6 C 0 km/h
618 28-04-2009 03:36:02 10.6 C 8.69 g/m*3 10.6 C 0 km/h
619 28-04-2009 03:48:02 10.5 C 8.63 g/m*3 10.5 C 0 km/h
620 28-04-2009 04:00:02 10.5 C 8.63 g/m*3 10.5 C 0 km/h
621 28-04-2009 04:12:02 10.4 C 8.67 g/m*3 10.4 C 0 km/h
622 28-04-2009 04:24:02 10.4 C 8.58 g/m*3 10.4 C 0 km/h
623 28-04-2009 04:36:02 10.2 C 8.56 g/m*3 10.2 C 0 km/h
624 28-04-2009 04:48:02 10.4 C 8.67 g/m*3 10.4 C 0 km/h
625 28-04-2009 05:00:02 10.2 C 8.56 g/m*3 10.2 C 0 km/h
Sensor: Nr:Datum:Temp:Abs-Feuchte:Windchill:Wind:
Aussen-T/F 626 28-04-2009 05:12:02 10.3 C 8.62 g/m*3 10.3 C 0 km/h
627 28-04-2009 05:24:02 10.1 C 8.51 g/m*3 10.1 C 0 km/h
628 28-04-2009 05:36:02 10.1 C 8.51 g/m*3 10.1 C 0 km/h
629 28-04-2009 05:48:03 10.2 C 8.56 g/m*3 10.2 C 0 km/h
630 28-04-2009 06:00:03 10.1 C 8.51 g/m*3 10.1 C 0 km/h
631 28-04-2009 06:12:03 10.1 C 8.61 g/m*3 10.1 C 0 km/h
632 28-04-2009 06:24:03 10 C 8.55 g/m*3 10 C 0 km/h
633 28-04-2009 06:36:00 9.9 C 8.59 g/m*3 9.9 C 0 km/h
634 28-04-2009 06:48:00 9.9 C 8.59 g/m*3 9.9 C 0 km/h
635 28-04-2009 07:00:00 10 C 8.55 g/m*3 10 C 0 km/h
636 28-04-2009 07:12:00 10.2 C 8.66 g/m*3 10.2 C 0 km/h
637 28-04-2009 07:24:00 10.2 C 8.66 g/m*3 10.2 C 0 km/h
638 28-04-2009 07:36:00 10.3 C 8.71 g/m*3 10.3 C 0 km/h
639 28-04-2009 07:48:59 10.3 C 8.71 g/m*3 10.3 C 0 km/h
640 28-04-2009 08:00:00 10.4 C 8.77 g/m*3 10.4 C 0 km/h
641 28-04-2009 08:12:01 10.5 C 8.83 g/m*3 10.5 C 0 km/h
642 28-04-2009 08:24:59 10.5 C 8.83 g/m*3 10.5 C 0 km/h
643 28-04-2009 08:36:59 10.8 C 8.99 g/m*3 10.8 C 0 km/h
644 28-04-2009 08:48:59 10.9 C 9.05 g/m*3 10.9 C 0 km/h
645 28-04-2009 09:00:59 10.9 C 9.05 g/m*3 10.9 C 0 km/h
646 28-04-2009 09:12:59 11 C 9.01 g/m*3 11 C 0 km/h
647 28-04-2009 09:24:59 11 C 9.01 g/m*3 11 C 0 km/h
648 28-04-2009 09:36:58 10.8 C 8.9 g/m*3 10.8 C 0 km/h
649 28-04-2009 09:48:59 10.8 C 8.9 g/m*3 10.8 C 0 km/h
650 28-04-2009 10:00:58 11 C 9.01 g/m*3 11 C 0 km/h
Sensor: Nr:Datum:Temp:Abs-Feuchte:Windchill:Wind:
Aussen-T/F 651 28-04-2009 10:12:58 11.1 C 9.07 g/m*3 11.1 C 0 km/h
652 28-04-2009 10:24:58 11.1 C 9.07 g/m*3 11.1 C 0 km/h
653 28-04-2009 10:36:58 11.5 C 9.3 g/m*3 11.5 C 0 km/h
654 28-04-2009 10:48:58 11.4 C 9.24 g/m*3 11.4 C 0 km/h
655 28-04-2009 11:00:57 11.5 C 9.3 g/m*3 11.5 C 0 km/h
656 28-04-2009 11:12:57 11.2 C 9.02 g/m*3 11.2 C 0 km/h
657 28-04-2009 11:24:58 11.3 C 9.08 g/m*3 11.3 C 0 km/h
658 28-04-2009 11:36:58 11.5 C 9.19 g/m*3 11.5 C 0 km/h
659 28-04-2009 11:48:57 11.6 C 9.15 g/m*3 11.6 C 0 km/h
660 28-04-2009 12:00:58 11.9 C 9.32 g/m*3 11.9 C 0 km/h
661 28-04-2009 12:12:58 11.6 C 9.04 g/m*3 11.6 C 0 km/h
662 28-04-2009 12:24:57 12.1 C 9.22 g/m*3 12.1 C 0 km/h
663 28-04-2009 12:36:57 12.2 C 9.06 g/m*3 12.2 C 0 km/h
664 28-04-2009 12:48:57 12.6 C 9.29 g/m*3 12.6 C 0 km/h
665 28-04-2009 13:00:57 12.8 C 9.3 g/m*3 12.8 C 0 km/h
666 28-04-2009 13:12:57 12.7 C 9.24 g/m*3 12.7 C 0 km/h
667 28-04-2009 13:24:56 12.7 C 9.02 g/m*3 12.7 C 0 km/h
668 28-04-2009 13:36:56 11.5 C 8.47 g/m*3 11.5 C 0 km/h
669 28-04-2009 13:48:56 10.4 C 7.9 g/m*3 10.4 C 0 km/h
670 28-04-2009 14:00:56 10.5 C 7.95 g/m*3 10.5 C 0 km/h
671 28-04-2009 14:12:56 10.5 C 8.05 g/m*3 10.5 C 0 km/h
672 28-04-2009 14:24:56 10.7 C 8.05 g/m*3 10.7 C 0 km/h
673 28-04-2009 14:36:56 11.5 C 8.06 g/m*3 11.5 C 0 km/h
674 28-04-2009 14:48:56 11.6 C 7.8 g/m*3 11.6 C 0 km/h
675 28-04-2009 15:00:55 11.5 C 7.64 g/m*3 11.5 C 0 km/h
Sensor: Nr:Datum:Temp:Abs-Feuchte:Windchill:Wind:
Aussen-T/F 676 28-04-2009 15:12:55 11.5 C 7.44 g/m*3 11.5 C 0 km/h
677 28-04-2009 15:24:56 11.6 C 7.48 g/m*3 11.6 C 0 km/h
678 28-04-2009 15:36:55 11.9 C 7.52 g/m*3 11.9 C 0 km/h
679 28-04-2009 15:48:55 11.9 C 7.52 g/m*3 11.9 C 0 km/h
680 28-04-2009 16:00:55 12.1 C 7.4 g/m*3 12.1 C 0 km/h
681 28-04-2009 16:12:55 12.2 C 7.34 g/m*3 12.2 C 0 km/h
682 28-04-2009 16:24:55 12.5 C 7.26 g/m*3 12.5 C 0 km/h
683 28-04-2009 16:36:54 13.1 C 7.07 g/m*3 13.1 C 0 km/h
684 28-04-2009 16:48:55 13.3 C 6.82 g/m*3 13.3 C 0 km/h
685 28-04-2009 17:00:55 13.4 C 6.74 g/m*3 13.4 C 0 km/h
686 28-04-2009 17:12:55 13.6 C 6.59 g/m*3 13.6 C 0 km/h
687 28-04-2009 17:24:54 13.4 C 6.39 g/m*3 13.4 C 0 km/h
688 28-04-2009 17:36:54 13.3 C 6.47 g/m*3 13.3 C 0 km/h
689 28-04-2009 17:48:54 13.4 C 6.51 g/m*3 13.4 C 0 km/h
690 28-04-2009 18:00:54 13.2 C 6.09 g/m*3 13.2 C 0 km/h
691 28-04-2009 18:12:54 13.2 C 6.2 g/m*3 13.2 C 0 km/h
692 28-04-2009 18:24:53 12.9 C 5.97 g/m*3 12.9 C 0 km/h
693 28-04-2009 18:36:54 13 C 6.12 g/m*3 13 C 0 km/h
694 28-04-2009 18:48:53 13.1 C 6.28 g/m*3 13.1 C 0 km/h
695 28-04-2009 19:00:53 12.9 C 6.2 g/m*3 12.9 C 0 km/h
696 28-04-2009 19:12:53 12.9 C 6.88 g/m*3 12.9 C 0 km/h
697 28-04-2009 19:24:53 12.8 C 7.17 g/m*3 12.8 C 0 km/h
698 28-04-2009 19:36:53 12.8 C 7.17 g/m*3 12.8 C 0 km/h
699 28-04-2009 19:48:52 12.7 C 7.01 g/m*3 12.7 C 0 km/h
700 28-04-2009 20:00:53 12.6 C 7.08 g/m*3 12.6 C 0 km/h
Sensor: Nr:Datum:Temp:Abs-Feuchte:Windchill:Wind:
Aussen-T/F 701 28-04-2009 20:12:53 12.5 C 7.04 g/m*3 12.5 C 0 km/h
702 28-04-2009 20:24:53 11.6 C 6.96 g/m*3 11.6 C 0 km/h
703 28-04-2009 20:36:52 10.8 C 6.92 g/m*3 10.8 C 0 km/h
704 28-04-2009 20:48:53 10.1 C 6.71 g/m*3 10.1 C 0 km/h
705 28-04-2009 21:00:52 9.6 C 6.69 g/m*3 9.6 C 0 km/h
706 28-04-2009 21:12:52 9.2 C 6.79 g/m*3 9.2 C 0 km/h
707 28-04-2009 21:24:52 9.1 C 6.83 g/m*3 9.1 C 0 km/h
708 28-04-2009 21:36:52 9.2 C 6.88 g/m*3 9.2 C 0 km/h
709 28-04-2009 21:49:53 9.3 C 6.92 g/m*3 9.3 C 0 km/h
710 28-04-2009 22:01:53 9.2 C 6.88 g/m*3 9.2 C 0 km/h
711 28-04-2009 22:13:53 9.1 C 7.01 g/m*3 9.1 C 0 km/h
712 28-04-2009 22:25:53 9 C 6.96 g/m*3 9 C 0 km/h
713 28-04-2009 22:37:53 8.9 C 7.01 g/m*3 8.9 C 0 km/h
714 28-04-2009 22:49:53 8.6 C 6.87 g/m*3 8.6 C 0 km/h
715 28-04-2009 23:01:53 8.7 C 6.92 g/m*3 8.7 C 0 km/h
716 28-04-2009 23:13:53 8.8 C 6.96 g/m*3 8.8 C 0 km/h
717 28-04-2009 23:25:53 8.9 C 7.01 g/m*3 8.9 C 0 km/h
718 28-04-2009 23:37:53 8.8 C 6.96 g/m*3 8.8 C 0 km/h
719 28-04-2009 23:49:53 8.7 C 6.92 g/m*3 8.7 C 0 km/h
720 29-04-2009 00:01:53 8.6 C 6.96 g/m*3 8.6 C 0 km/h
721 29-04-2009 00:13:53 8.6 C 6.96 g/m*3 8.6 C 0 km/h
722 29-04-2009 00:25:53 8.6 C 7.05 g/m*3 8.6 C 0 km/h
723 29-04-2009 00:37:53 8.5 C 7 g/m*3 8.5 C 0 km/h
724 29-04-2009 00:49:54 8.4 C 7.04 g/m*3 8.4 C 0 km/h
725 29-04-2009 01:01:54 8.4 C 7.04 g/m*3 8.4 C 0 km/h
Sensor: Nr:Datum:Temp:Abs-Feuchte:Windchill:Wind:
Aussen-T/F 726 29-04-2009 01:13:54 8.3 C 7 g/m*3 8.3 C 0 km/h
727 29-04-2009 01:25:54 8.2 C 6.95 g/m*3 8.2 C 0 km/h
728 29-04-2009 01:37:54 8.1 C 6.91 g/m*3 8.1 C 0 km/h
729 29-04-2009 01:49:54 8 C 6.86 g/m*3 8 C 0 km/h
730 29-04-2009 02:01:54 7.9 C 6.9 g/m*3 7.9 C 0 km/h
731 29-04-2009 02:13:54 7.7 C 6.81 g/m*3 7.7 C 0 km/h
732 29-04-2009 02:25:54 7.7 C 6.89 g/m*3 7.7 C 0 km/h
733 29-04-2009 02:37:54 7.6 C 6.85 g/m*3 7.6 C 0 km/h
734 29-04-2009 02:49:54 7.4 C 6.76 g/m*3 7.4 C 0 km/h
735 29-04-2009 03:01:54 7.3 C 6.79 g/m*3 7.3 C 0 km/h
736 29-04-2009 03:13:54 7.3 C 6.87 g/m*3 7.3 C 0 km/h
737 29-04-2009 03:25:54 7.3 C 6.87 g/m*3 7.3 C 0 km/h
738 29-04-2009 03:37:54 7.2 C 6.83 g/m*3 7.2 C 0 km/h
739 29-04-2009 03:49:54 7.2 C 6.83 g/m*3 7.2 C 0 km/h
740 29-04-2009 04:01:54 7.1 C 6.79 g/m*3 7.1 C 0 km/h
741 29-04-2009 04:13:54 6.9 C 6.77 g/m*3 6.9 C 0 km/h
742 29-04-2009 04:25:54 6.9 C 6.77 g/m*3 6.9 C 0 km/h
743 29-04-2009 04:37:54 6.8 C 6.73 g/m*3 6.8 C 0 km/h
744 29-04-2009 04:49:55 6.7 C 6.69 g/m*3 6.7 C 0 km/h
745 29-04-2009 05:01:55 6.6 C 6.72 g/m*3 6.6 C 0 km/h
746 29-04-2009 05:13:55 6.6 C 6.72 g/m*3 6.6 C 0 km/h
747 29-04-2009 05:25:55 7 C 6.9 g/m*3 7 C 0 km/h
748 29-04-2009 05:37:55 7.2 C 6.99 g/m*3 7.2 C 0 km/h
749 29-04-2009 05:49:55 7.3 C 7.11 g/m*3 7.3 C 0 km/h
750 29-04-2009 06:01:55 7.1 C 6.94 g/m*3 7.1 C 0 km/h
Sensor: Nr:Datum:Temp:Abs-Feuchte:Windchill:Wind:
Aussen-T/F 751 29-04-2009 06:13:55 7 C 6.97 g/m*3 7 C 0 km/h
752 29-04-2009 06:25:55 6.9 C 6.93 g/m*3 6.9 C 0 km/h
753 29-04-2009 06:37:55 7 C 6.97 g/m*3 7 C 0 km/h
754 29-04-2009 06:49:55 7 C 6.97 g/m*3 7 C 0 km/h
755 29-04-2009 07:01:55 7 C 6.97 g/m*3 7 C 0 km/h
756 29-04-2009 07:13:55 7.1 C 7.02 g/m*3 7.1 C 0 km/h
757 29-04-2009 07:25:53 7.4 C 7.16 g/m*3 7.4 C 0 km/h
758 29-04-2009 07:37:52 7.6 C 7.25 g/m*3 7.6 C 0 km/h
759 29-04-2009 07:49:52 7.8 C 7.26 g/m*3 7.8 C 0 km/h
760 29-04-2009 08:01:52 8 C 7.19 g/m*3 8 C 0 km/h
761 29-04-2009 08:13:52 8.1 C 7.07 g/m*3 8.1 C 0 km/h
762 29-04-2009 08:25:52 8.1 C 6.99 g/m*3 8.1 C 0 km/h
763 29-04-2009 08:37:51 8.2 C 7.03 g/m*3 8.2 C 0 km/h
764 29-04-2009 08:49:51 8.5 C 7.17 g/m*3 8.5 C 0 km/h
765 29-04-2009 09:01:51 8.7 C 7.18 g/m*3 8.7 C 0 km/h
766 29-04-2009 09:13:51 9.3 C 7.28 g/m*3 9.3 C 0 km/h
767 29-04-2009 09:25:51 9.7 C 7.28 g/m*3 9.7 C 0 km/h
768 29-04-2009 09:37:51 10.3 C 7.28 g/m*3 10.3 C 0 km/h
769 29-04-2009 09:49:51 10.8 C 7.31 g/m*3 10.8 C 0 km/h
770 29-04-2009 10:01:50 11.5 C 7.33 g/m*3 11.5 C 0 km/h
771 29-04-2009 10:13:50 12.2 C 7.45 g/m*3 12.2 C 0 km/h
772 29-04-2009 10:25:51 12.9 C 7.44 g/m*3 12.9 C 0 km/h
773 29-04-2009 10:37:50 13.2 C 7.23 g/m*3 13.2 C 0 km/h
774 29-04-2009 10:49:50 13.5 C 7.25 g/m*3 13.5 C 0 km/h
775 29-04-2009 11:01:50 14.1 C 7.04 g/m*3 14.1 C 0 km/h
Sensor: Nr:Datum:Temp:Abs-Feuchte:Windchill:Wind:
Aussen-T/F 776 29-04-2009 11:13:50 14.7 C 6.92 g/m*3 14.7 C 0 km/h
777 29-04-2009 11:25:50 15.5 C 6.87 g/m*3 15.5 C 0 km/h
778 29-04-2009 11:37:50 15.5 C 6.74 g/m*3 15.5 C 0 km/h
779 29-04-2009 11:49:50 16.3 C 6.66 g/m*3 16.3 C 0 km/h
780 29-04-2009 12:01:50 16.6 C 6.5 g/m*3 16.6 C 0 km/h
781 29-04-2009 12:13:50 16.4 C 5.44 g/m*3 16.4 C 0 km/h
782 29-04-2009 12:25:49 17.3 C 5.6 g/m*3 17.3 C 0 km/h
783 29-04-2009 12:37:50 17 C 5.35 g/m*3 17 C 0 km/h
784 29-04-2009 12:49:49 17.9 C 5.65 g/m*3 17.9 C 0 km/h
785 29-04-2009 13:01:49 18.5 C 5.22 g/m*3 18.5 C 0 km/h
786 29-04-2009 13:13:50 18.6 C 4.93 g/m*3 18.6 C 0 km/h
787 29-04-2009 13:25:49 18.3 C 5 g/m*3 18.3 C 0 km/h
788 29-04-2009 13:37:49 18.5 C 4.59 g/m*3 18.5 C 0 km/h
789 29-04-2009 13:49:48 18.1 C 3.86 g/m*3 18.1 C 0 km/h
790 29-04-2009 14:01:48 17.9 C 4.12 g/m*3 17.9 C 0 km/h
791 29-04-2009 14:13:48 17.5 C 4.47 g/m*3 17.5 C 0 km/h
792 29-04-2009 14:25:49 18.5 C 4.75 g/m*3 18.5 C 0 km/h
793 29-04-2009 14:37:48 18.6 C 4.77 g/m*3 18.6 C 0 km/h
794 29-04-2009 14:49:48 20.3 C 5.1 g/m*3 20.3 C 0 km/h
795 29-04-2009 15:01:48 20.2 C 4.37 g/m*3 20.2 C 0 km/h
796 29-04-2009 15:13:48 18.1 C 4.94 g/m*3 18.1 C 0 km/h
797 29-04-2009 15:25:48 17.5 C 5.22 g/m*3 17.5 C 0 km/h
798 29-04-2009 15:37:47 18 C 4.92 g/m*3 18 C 0 km/h
799 29-04-2009 15:49:48 20 C 5.01 g/m*3 20 C 0 km/h
800 29-04-2009 16:01:47 21.1 C 4.97 g/m*3 21.1 C 0 km/h
Sensor: Nr:Datum:Temp:Abs-Feuchte:Windchill:Wind:
Aussen-T/F 801 29-04-2009 16:13:47 20.5 C 4.45 g/m*3 20.5 C 0 km/h
802 29-04-2009 16:25:47 20.7 C 4.5 g/m*3 20.7 C 0 km/h
803 29-04-2009 16:37:48 21.2 C 4.63 g/m*3 21.2 C 0 km/h
804 29-04-2009 16:49:47 21.8 C 4.22 g/m*3 21.8 C 0 km/h
805 29-04-2009 17:01:47 19.5 C 4.36 g/m*3 19.5 C 0 km/h
806 29-04-2009 17:13:47 17.6 C 4.65 g/m*3 17.6 C 0 km/h
807 29-04-2009 17:25:47 17.3 C 5.01 g/m*3 17.3 C 0 km/h
808 29-04-2009 17:37:47 16.8 C 5 g/m*3 16.8 C 0 km/h
809 29-04-2009 17:49:46 14.9 C 6.37 g/m*3 14.9 C 0 km/h
810 29-04-2009 18:01:47 13.7 C 8.64 g/m*3 13.7 C 0 km/h
811 29-04-2009 18:13:47 12.5 C 8.36 g/m*3 12.5 C 0 km/h
812 29-04-2009 18:25:46 12 C 8.42 g/m*3 12 C 0 km/h
813 29-04-2009 18:37:46 11.2 C 8.11 g/m*3 11.2 C 0 km/h
814 29-04-2009 18:49:46 11.8 C 8.63 g/m*3 11.8 C 0 km/h
815 29-04-2009 19:01:46 12.7 C 9.02 g/m*3 12.7 C 0 km/h
816 29-04-2009 19:13:46 12.8 C 8.62 g/m*3 12.8 C 0 km/h
817 29-04-2009 19:25:45 12.7 C 8.68 g/m*3 12.7 C 0 km/h
818 29-04-2009 19:37:46 12.5 C 8.58 g/m*3 12.5 C 0 km/h
819 29-04-2009 19:49:45 12.5 C 8.47 g/m*3 12.5 C 0 km/h
820 29-04-2009 20:01:45 12.2 C 8.09 g/m*3 12.2 C 0 km/h
821 29-04-2009 20:13:45 12.3 C 8.25 g/m*3 12.3 C 0 km/h
822 29-04-2009 20:25:45 12 C 7.99 g/m*3 12 C 0 km/h
823 29-04-2009 20:37:45 11.7 C 8.05 g/m*3 11.7 C 0 km/h
824 29-04-2009 20:49:44 11.7 C 8.05 g/m*3 11.7 C 0 km/h
825 29-04-2009 21:01:45 11.3 C 7.65 g/m*3 11.3 C 0 km/h
Sensor: Nr:Datum:Temp:Abs-Feuchte:Windchill:Wind:
Aussen-T/F 826 29-04-2009 21:13:46 11.1 C 7.55 g/m*3 11.1 C 0 km/h
827 29-04-2009 21:25:44 11 C 7.41 g/m*3 11 C 0 km/h
828 29-04-2009 21:37:44 10.8 C 7.41 g/m*3 10.8 C 0 km/h
829 29-04-2009 21:49:44 10.7 C 7.27 g/m*3 10.7 C 0 km/h
830 29-04-2009 22:01:44 10.6 C 7.22 g/m*3 10.6 C 0 km/h
831 29-04-2009 22:13:44 10.7 C 7.07 g/m*3 10.7 C 0 km/h
832 29-04-2009 22:25:44 10.7 C 7.07 g/m*3 10.7 C 0 km/h
833 29-04-2009 22:38:45 10.7 C 7.07 g/m*3 10.7 C 0 km/h
834 29-04-2009 22:50:45 10.7 C 7.07 g/m*3 10.7 C 0 km/h
835 29-04-2009 23:02:45 10.7 C 7.17 g/m*3 10.7 C 0 km/h
836 29-04-2009 23:14:46 10.6 C 7.12 g/m*3 10.6 C 0 km/h
837 29-04-2009 23:26:46 10.5 C 7.18 g/m*3 10.5 C 0 km/h
838 29-04-2009 23:38:46 10.3 C 7.18 g/m*3 10.3 C 0 km/h
839 29-04-2009 23:50:46 10 C 7.14 g/m*3 10 C 0 km/h

Legende:
   Min
   Max


Maximal/Minimal-Werte vom 23.04.2009 - 29.04.2009

Sensor Min Max Avg
Temp
(Aussen-T/F)
6.2 °C
23-04-2009  04:19:40
29.5 °C
26-04-2009  17:46:08
13.8 °C
Abs-Feuchte
(Aussen-T/F)
3.3 g/m*3
24-04-2009  13:20:28
10.25 g/m*3
26-04-2009  22:59:05
6.56 g/m*3
Windchill
(Aussen-T/F)
6.2 C
23-04-2009  04:19:40
29.5 C
26-04-2009  17:46:08
13.79 C

Die Daten stammen von einer Davis Vantage Pro 2 Wetter-Station und werden unter Linux mit der Software wview2wettercgi und aufbereitet. Alle Angaben erfolgen ohne Gewähr für ihre Vollständigkeit oder Richtigkeit.
Kontakt: Rainer Krienke krienke@uni-koblenz.de . Meine Webseiten an der Uni Koblenz oder privat.
Version: $Revision: 0.78 $